Time;durP1;ratioP1;P1;durP2;ratioP2;P2;SDS_P1;SDS_P2;PMS_P1;PMS_P2;Temp;Humidity;BMP_temperature;BMP_pressure;BME280_temperature;BME280_humidity;BME280_pressure;Samples;Min_cycle;Max_cycle;Signal;HPM_P1;HPM_P2
2023/09/18 00:02:15;;;;;;;;;;;;;;;22.85;56.86;100550.25;4960795;28;117753;-77
2023/09/18 00:04:41;;;;;;;;;;;;;;;22.85;56.69;100545.75;4959286;28;124182;-77
2023/09/18 00:07:10;;;;;;;;;;;;;;;22.86;56.92;100541.19;4962225;28;123964;-78
2023/09/18 00:09:37;;;;;;;;;;;;;;;22.86;56.75;100535.78;4958667;28;119095;-77
2023/09/18 00:12:05;;;;;;;;;;;;;;;22.87;56.88;100521.28;4964933;28;120713;-77
2023/09/18 00:14:32;;;;;;;;;;;;;;;22.87;56.76;100521.28;4967806;28;122987;-77
2023/09/18 00:17:00;;;;;;;;;;;;;;;22.87;56.86;100515.88;4973516;28;123805;-77
2023/09/18 00:19:27;;;;;;;;;;;;;;;22.88;56.68;100514.84;4966979;28;119099;-77
2023/09/18 00:21:54;;;;;;;;;;;;;;;22.87;56.98;100515.88;4966353;28;118859;-77
2023/09/18 00:24:21;;;;;;;;;;;;;;;22.87;56.72;100505.06;4962519;28;124810;-77
2023/09/18 00:26:48;;;;;;;;;;;;;;;22.86;56.73;100504.22;4969332;28;123777;-77
2023/09/18 00:29:15;;;;;;;;;;;;;;;22.85;56.95;100501.66;4954255;28;119297;-77
2023/09/18 00:31:42;;;;;;;;;;;;;;;22.84;56.88;100495.41;4957098;28;120326;-77
2023/09/18 00:34:09;;;;;;;;;;;;;;;22.84;57.01;100499.97;4963226;28;124077;-77
2023/09/18 00:36:37;;;;;;;;;;;;;;;22.84;56.94;100494.56;4950341;28;124885;-78
2023/09/18 00:39:04;;;;;;;;;;;;;;;22.82;56.78;100483.09;4967375;28;118569;-77
2023/09/18 00:41:32;;;;;;;;;;;;;;;22.82;56.93;100475.00;4968892;28;118850;-77
2023/09/18 00:43:59;;;;;;;;;;;;;;;22.80;57.00;100477.00;4960775;28;124410;-77
2023/09/18 00:46:27;;;;;;;;;;;;;;;22.78;56.93;100474.47;4961667;28;123073;-77
2023/09/18 00:48:54;;;;;;;;;;;;;;;22.78;57.02;100468.22;4966530;28;119384;-77
2023/09/18 00:51:21;;;;;;;;;;;;;;;22.77;57.08;100469.22;4954089;28;117128;-78
2023/09/18 00:53:48;;;;;;;;;;;;;;;22.78;57.18;100452.84;4966544;28;125769;-77
2023/09/18 00:56:16;;;;;;;;;;;;;;;22.77;57.09;100450.31;4962435;28;124769;-77
2023/09/18 00:58:45;;;;;;;;;;;;;;;22.77;56.99;100450.31;4960381;28;119911;-77
2023/09/18 01:01:16;;;;;;;;;;;;;;;22.78;57.31;100446.63;4959010;28;117935;-77
2023/09/18 01:03:43;;;;;;;;;;;;;;;22.79;57.04;100437.50;4958898;28;125446;-78
2023/09/18 01:06:10;;;;;;;;;;;;;;;22.80;57.18;100434.63;4964678;28;123441;-78
2023/09/18 01:08:37;;;;;;;;;;;;;;;22.82;57.25;100431.78;4966909;28;119640;-77
2023/09/18 01:11:10;;;;;;;;;;;;;;;22.83;57.14;100423.53;4959373;28;118264;-77
2023/09/18 01:13:41;;;;;;;;;;;;;;;22.84;57.19;100414.41;4961856;28;124307;-77
2023/09/18 01:16:14;;;;;;;;;;;;;;;22.85;57.22;100401.75;4965233;28;125070;-77
2023/09/18 01:18:51;;;;;;;;;;;;;;;22.87;57.32;100394.34;4965369;28;120859;-77
2023/09/18 01:21:20;;;;;;;;;;;;;;;22.88;57.13;100394.16;4964549;28;119840;-77
2023/09/18 01:23:49;;;;;;;;;;;;;;;22.90;57.12;100385.91;4961716;28;124625;-77
2023/09/18 01:26:16;;;;;;;;;;;;;;;22.90;57.33;100392.16;4947698;28;123085;-77
2023/09/18 01:28:43;;;;;;;;;;;;;;;22.91;57.30;100393.03;4959858;28;120648;-77
2023/09/18 01:31:10;;;;;;;;;;;;;;;22.93;57.39;100391.00;4968495;28;119290;-78
2023/09/18 01:33:38;;;;;;;;;;;;;;;22.94;57.34;100393.56;4965629;28;123240;-78
2023/09/18 01:36:07;;;;;;;;;;;;;;;22.96;57.27;100387.97;4962416;28;124008;-77
2023/09/18 01:38:35;;;;;;;;;;;;;;;22.98;57.24;100382.41;4943877;28;117331;-77
2023/09/18 01:41:02;;;;;;;;;;;;;;;22.99;57.40;100384.94;4957649;28;119910;-78
2023/09/18 01:43:30;;;;;;;;;;;;;;;23.01;57.33;100382.09;4960783;28;124340;-77
2023/09/18 01:45:57;;;;;;;;;;;;;;;23.02;57.45;100379.25;4960998;28;124388;-77
2023/09/18 01:48:24;;;;;;;;;;;;;;;23.01;57.40;100372.13;4963122;28;119853;-77
2023/09/18 01:50:51;;;;;;;;;;;;;;;23.04;57.47;100371.84;4959976;28;117919;-77
2023/09/18 01:53:19;;;;;;;;;;;;;;;23.05;57.59;100373.53;4962363;28;124680;-78
2023/09/18 01:55:47;;;;;;;;;;;;;;;23.09;57.50;100369.53;4962664;28;124093;-77
2023/09/18 01:58:14;;;;;;;;;;;;;;;23.15;57.53;100367.16;4960628;28;118317;-77
2023/09/18 02:00:43;;;;;;;;;;;;;;;23.16;57.62;100349.94;4960071;28;119080;-77
2023/09/18 02:03:11;;;;;;;;;;;;;;;23.19;57.65;100352.31;4977316;28;124555;-77
2023/09/18 02:05:58;;;;;;;;;;;;;;;23.23;57.58;100364.50;4954962;28;124672;-77
2023/09/18 02:08:25;;;;;;;;;;;;;;;23.27;57.34;100360.47;4978347;28;121669;-78
2023/09/18 02:10:54;;;;;;;;;;;;;;;23.28;57.53;100362.13;4965468;28;120821;-77
2023/09/18 02:13:21;;;;;;;;;;;;;;;23.31;57.41;100361.81;4961899;28;123498;-77
2023/09/18 02:15:48;;;;;;;;;;;;;;;23.33;57.63;100365.19;4958352;28;124013;-77
2023/09/18 02:18:15;;;;;;;;;;;;;;;23.35;57.42;100352.38;4958958;28;119070;-77
2023/09/18 02:20:44;;;;;;;;;;;;;;;23.38;57.47;100352.06;4964008;28;118981;-77
2023/09/18 02:23:11;;;;;;;;;;;;;;;23.40;57.51;100349.19;4961199;28;125334;-77
2023/09/18 02:25:40;;;;;;;;;;;;;;;23.42;57.62;100342.59;4964863;28;124338;-76
2023/09/18 02:28:07;;;;;;;;;;;;;;;23.43;57.62;100328.09;4961653;28;120390;-77
2023/09/18 02:30:34;;;;;;;;;;;;;;;23.45;57.50;100331.47;4957139;28;117988;-77
2023/09/18 02:33:03;;;;;;;;;;;;;;;23.49;57.35;100322.00;4960031;28;124713;-77
2023/09/18 02:35:30;;;;;;;;;;;;;;;23.50;57.54;100318.28;4956144;28;124088;-77
2023/09/18 02:37:59;;;;;;;;;;;;;;;23.52;57.40;100316.25;4962392;28;119411;-77
2023/09/18 02:40:26;;;;;;;;;;;;;;;23.55;57.48;100308.84;4959825;28;118989;-77
2023/09/18 02:42:53;;;;;;;;;;;;;;;23.57;57.28;100301.41;4964379;28;124681;-77
2023/09/18 02:45:20;;;;;;;;;;;;;;;23.58;57.42;100289.56;4966431;28;125330;-77
2023/09/18 02:47:47;;;;;;;;;;;;;;;23.58;57.25;100276.88;4961959;28;119140;-77
2023/09/18 02:50:14;;;;;;;;;;;;;;;23.58;57.51;100276.06;4964323;28;118927;-77
2023/09/18 02:52:41;;;;;;;;;;;;;;;23.58;57.48;100265.22;4967650;28;124216;-77
2023/09/18 02:55:10;;;;;;;;;;;;;;;23.58;57.32;100254.41;4961894;28;124049;-77
2023/09/18 02:57:37;;;;;;;;;;;;;;;23.60;57.46;100249.69;4955657;28;121427;-77
2023/09/18 03:00:05;;;;;;;;;;;;;;;23.59;57.31;100251.56;4964977;28;119644;-77
2023/09/18 03:02:32;;;;;;;;;;;;;;;23.59;57.35;100245.31;4965148;28;124337;-77
2023/09/18 03:04:59;;;;;;;;;;;;;;;23.59;57.41;100245.31;4965345;28;124213;-77
2023/09/18 03:07:29;;;;;;;;;;;;;;;23.60;57.28;100236.16;4960181;28;118404;-77
2023/09/18 03:09:56;;;;;;;;;;;;;;;23.60;57.51;100230.75;4959622;28;120113;-77
2023/09/18 03:12:23;;;;;;;;;;;;;;;23.59;57.29;100218.28;4972723;28;124941;-77
2023/09/18 03:14:51;;;;;;;;;;;;;;;23.60;57.52;100223.53;4979192;28;125323;-77
2023/09/18 03:17:20;;;;;;;;;;;;;;;23.60;57.40;100222.66;4963736;28;119847;-77
2023/09/18 03:19:47;;;;;;;;;;;;;;;23.62;57.27;100228.72;4965484;28;118100;-77
2023/09/18 03:22:15;;;;;;;;;;;;;;;23.60;57.44;100244.28;4967796;28;124152;-77
2023/09/18 03:24:42;;;;;;;;;;;;;;;23.60;57.19;100237.03;4972161;28;124558;-78
2023/09/18 03:27:09;;;;;;;;;;;;;;;23.60;57.57;100247.00;4971045;28;119024;-77
2023/09/18 03:29:36;;;;;;;;;;;;;;;23.57;57.31;100244.63;4951685;28;118250;-77
2023/09/18 03:32:03;;;;;;;;;;;;;;;23.55;57.48;100243.97;4963959;28;122658;-77
2023/09/18 03:34:30;;;;;;;;;;;;;;;23.54;57.43;100253.06;4973333;28;125612;-77
2023/09/18 03:36:57;;;;;;;;;;;;;;;23.54;57.35;100261.19;4968736;28;121482;-78
2023/09/18 03:39:24;;;;;;;;;;;;;;;23.51;57.42;100265.91;4969713;28;117895;-77
2023/09/18 03:41:53;;;;;;;;;;;;;;;23.52;57.72;100256.78;4955534;28;118438;-77
2023/09/18 03:44:21;;;;;;;;;;;;;;;23.51;57.55;100252.41;4969203;28;124106;-77
2023/09/18 03:46:48;;;;;;;;;;;;;;;23.52;57.63;100251.38;4949441;28;121799;-77
2023/09/18 03:49:15;;;;;;;;;;;;;;;23.54;57.62;100247.66;4962438;28;118804;-77
2023/09/18 03:51:43;;;;;;;;;;;;;;;23.54;57.46;100247.66;4964483;28;123797;-77
2023/09/18 03:54:10;;;;;;;;;;;;;;;23.51;57.49;100244.28;4959487;28;123741;-78
2023/09/18 03:56:37;;;;;;;;;;;;;;;23.51;57.53;100244.28;4961149;28;120415;-77
2023/09/18 03:59:04;;;;;;;;;;;;;;;23.54;57.71;100242.25;4966023;28;118942;-76
2023/09/18 04:01:31;;;;;;;;;;;;;;;23.55;57.47;100233.16;4970069;28;124305;-77
2023/09/18 04:03:58;;;;;;;;;;;;;;;23.54;57.56;100226.88;4967886;28;123599;-77
2023/09/18 04:06:25;;;;;;;;;;;;;;;23.55;57.81;100239.41;4967237;28;118903;-77
2023/09/18 04:08:52;;;;;;;;;;;;;;;23.56;57.73;100240.22;4970816;28;118525;-77
2023/09/18 04:11:24;;;;;;;;;;;;;;;23.57;57.80;100241.94;4967412;28;123266;-77
2023/09/18 04:13:52;;;;;;;;;;;;;;;23.59;57.76;100234.50;4965922;28;125337;-77
2023/09/18 04:16:19;;;;;;;;;;;;;;;23.60;57.62;100228.06;4950103;28;119633;-77
2023/09/18 04:18:46;;;;;;;;;;;;;;;23.63;57.62;100214.22;4968736;28;118205;-77
2023/09/18 04:21:13;;;;;;;;;;;;;;;23.65;57.71;100206.78;4944956;28;125071;-77
2023/09/18 04:23:40;;;;;;;;;;;;;;;23.66;57.81;100190.41;4961685;28;124485;-77
2023/09/18 04:26:07;;;;;;;;;;;;;;;23.68;57.74;100195.63;4967117;28;118251;-77
2023/09/18 04:28:34;;;;;;;;;;;;;;;23.72;57.67;100207.78;4962106;28;119843;-77
2023/09/18 04:31:01;;;;;;;;;;;;;;;23.73;57.60;100220.28;4959523;28;125271;-77
2023/09/18 04:33:28;;;;;;;;;;;;;;;23.75;57.75;100222.81;4966317;28;123808;-76
2023/09/18 04:35:56;;;;;;;;;;;;;;;23.76;57.54;100221.81;4962114;28;121399;-77
2023/09/18 04:38:23;;;;;;;;;;;;;;;23.76;57.96;100241.59;4965678;28;119429;-76
2023/09/18 04:40:57;;;;;;;;;;;;;;;23.77;57.73;100229.78;4966177;28;125388;-76
2023/09/18 04:43:24;;;;;;;;;;;;;;;23.79;57.66;100213.38;4965592;28;122859;-76
2023/09/18 04:45:52;;;;;;;;;;;;;;;23.79;57.95;100203.44;4966550;28;118844;-77
2023/09/18 04:48:19;;;;;;;;;;;;;;;23.79;57.91;100192.63;4964414;28;119760;-76
2023/09/18 04:50:46;;;;;;;;;;;;;;;23.80;57.93;100188.88;4965298;28;125989;-76
2023/09/18 04:53:13;;;;;;;;;;;;;;;23.81;57.63;100177.06;4965268;28;124360;-76
2023/09/18 04:55:41;;;;;;;;;;;;;;;23.81;57.75;100157.25;4963896;28;120486;-76
2023/09/18 04:58:08;;;;;;;;;;;;;;;23.82;57.70;100157.09;4960934;28;120503;-77
2023/09/18 05:00:35;;;;;;;;;;;;;;;23.84;57.75;100152.34;4966035;28;124463;-77
2023/09/18 05:03:03;;;;;;;;;;;;;;;23.87;57.66;100156.59;4966190;28;124296;-77
2023/09/18 05:05:30;;;;;;;;;;;;;;;23.86;57.91;100150.31;4967489;28;119420;-76
2023/09/18 05:07:57;;;;;;;;;;;;;;;23.85;57.71;100143.25;4959592;28;120164;-76
2023/09/18 05:10:24;;;;;;;;;;;;;;;23.84;57.49;100144.25;4957521;28;124112;-77
2023/09/18 05:12:58;;;;;;;;;;;;;;;23.86;57.96;100147.59;4963283;28;123659;-77
2023/09/18 05:15:26;;;;;;;;;;;;;;;23.86;57.72;100144.91;4966108;28;119492;-77
2023/09/18 05:17:55;;;;;;;;;;;;;;;23.88;57.65;100148.31;4967049;28;118923;-77
2023/09/18 05:20:24;;;;;;;;;;;;;;;23.87;57.71;100141.19;4960397;28;124384;-77
2023/09/18 05:22:54;;;;;;;;;;;;;;;23.87;57.64;100146.59;4960107;28;123621;-77
2023/09/18 05:25:22;;;;;;;;;;;;;;;23.88;57.81;100153.72;4963339;28;121924;-76
2023/09/18 05:27:55;;;;;;;;;;;;;;;23.87;57.69;100162.84;4965955;28;120209;-76
2023/09/18 05:30:28;;;;;;;;;;;;;;;23.85;57.66;100164.88;4962369;28;125533;-76
2023/09/18 05:32:55;;;;;;;;;;;;;;;23.86;57.67;100177.38;4955909;28;124790;-76
2023/09/18 05:35:23;;;;;;;;;;;;;;;23.87;57.90;100184.47;4945972;28;120080;-77
2023/09/18 05:37:56;;;;;;;;;;;;;;;23.87;57.73;100191.75;4960587;28;119047;-77
2023/09/18 05:40:26;;;;;;;;;;;;;;;23.85;57.84;100197.31;4962637;28;124850;-76
2023/09/18 05:42:54;;;;;;;;;;;;;;;23.83;58.00;100196.66;4955540;28;124258;-76
2023/09/18 05:45:21;;;;;;;;;;;;;;;23.84;57.94;100195.63;4959655;28;118799;-76
2023/09/18 05:47:48;;;;;;;;;;;;;;;23.82;57.95;100194.94;4960753;28;118637;-76
2023/09/18 05:50:17;;;;;;;;;;;;;;;23.82;57.93;100215.75;4963788;28;123783;-76
2023/09/18 05:52:45;;;;;;;;;;;;;;;23.82;57.77;100226.56;4956853;28;125761;-77
2023/09/18 05:55:13;;;;;;;;;;;;;;;23.81;57.92;100217.63;4963120;28;119630;-77
2023/09/18 05:57:40;;;;;;;;;;;;;;;23.79;57.83;100219.66;4957482;28;118471;-77
2023/09/18 06:00:12;;;;;;;;;;;;;;;23.80;57.83;100236.72;4963389;28;123479;-76
2023/09/18 06:02:40;;;;;;;;;;;;;;;23.79;57.89;100235.88;4955184;28;124137;-76
2023/09/18 06:05:11;;;;;;;;;;;;;;;23.80;58.01;100232.16;4960681;28;118856;-77
2023/09/18 06:07:38;;;;;;;;;;;;;;;23.81;57.98;100232.97;4959541;28;117787;-76
2023/09/18 06:10:05;;;;;;;;;;;;;;;23.79;57.68;100230.47;4956002;28;124734;-77
2023/09/18 06:12:32;;;;;;;;;;;;;;;23.79;57.69;100225.06;4961536;28;124413;-76
2023/09/18 06:14:59;;;;;;;;;;;;;;;23.79;57.82;100235.88;4956467;28;119980;-77
2023/09/18 06:17:26;;;;;;;;;;;;;;;23.80;57.95;100237.56;4960909;28;119335;-77
2023/09/18 06:19:55;;;;;;;;;;;;;;;23.82;57.75;100267.97;4952508;28;125063;-77
2023/09/18 06:22:22;;;;;;;;;;;;;;;23.81;57.70;100260.91;4965176;28;124290;-77
2023/09/18 06:24:49;;;;;;;;;;;;;;;23.82;57.91;100257.16;4958197;28;119386;-77
2023/09/18 06:27:16;;;;;;;;;;;;;;;23.82;57.73;100256.31;4963438;28;119925;-77
2023/09/18 06:29:43;;;;;;;;;;;;;;;23.79;57.99;100260.22;4962394;28;124471;-77
2023/09/18 06:32:10;;;;;;;;;;;;;;;23.78;57.79;100266.59;4960364;28;124355;-77
2023/09/18 06:34:38;;;;;;;;;;;;;;;23.77;57.91;100259.50;4973734;28;118742;-77
2023/09/18 06:37:07;;;;;;;;;;;;;;;23.76;57.66;100274.03;4959870;28;120630;-76
2023/09/18 06:39:34;;;;;;;;;;;;;;;23.75;57.84;100266.94;4961566;28;124935;-76
2023/09/18 06:42:01;;;;;;;;;;;;;;;23.75;57.83;100261.50;4960444;28;123925;-76
2023/09/18 06:44:28;;;;;;;;;;;;;;;23.75;57.99;100256.09;4958289;28;119675;-77
2023/09/18 06:46:55;;;;;;;;;;;;;;;23.76;57.85;100260.50;4944682;28;119665;-78
2023/09/18 06:49:24;;;;;;;;;;;;;;;23.77;57.71;100259.50;4951229;28;124844;-77
2023/09/18 06:51:51;;;;;;;;;;;;;;;23.78;57.91;100274.72;4968212;28;124435;-77
2023/09/18 06:54:18;;;;;;;;;;;;;;;23.78;58.01;100277.41;4968205;28;119294;-77
2023/09/18 06:56:45;;;;;;;;;;;;;;;23.79;58.08;100273.75;4967007;28;118254;-77
2023/09/18 06:59:12;;;;;;;;;;;;;;;23.80;57.80;100280.81;4962003;28;124500;-77
2023/09/18 07:01:40;;;;;;;;;;;;;;;23.80;57.74;100280.00;4966078;28;124668;-78
2023/09/18 07:04:08;;;;;;;;;;;;;;;23.80;57.93;100291.63;4966374;28;120906;-77
2023/09/18 07:06:35;;;;;;;;;;;;;;;23.79;57.66;100278.28;4958819;28;119736;-77
2023/09/18 07:09:04;;;;;;;;;;;;;;;23.81;57.76;100287.94;4959319;28;123918;-77
2023/09/18 07:11:31;;;;;;;;;;;;;;;23.80;57.78;100280.81;4965208;28;124064;-77
2023/09/18 07:13:59;;;;;;;;;;;;;;;23.82;57.88;100284.19;4953164;28;119680;-77
2023/09/18 07:16:26;;;;;;;;;;;;;;;23.83;57.82;100274.25;4957731;28;119864;-77
2023/09/18 07:18:58;;;;;;;;;;;;;;;23.84;57.96;100276.75;4966376;28;124574;-78
2023/09/18 07:21:44;;;;;;;;;;;;;;;23.84;57.82;100286.75;4950933;28;125845;-78
2023/09/18 07:24:16;;;;;;;;;;;;;;;23.85;57.72;100289.28;4962149;28;119377;-78
2023/09/18 07:26:47;;;;;;;;;;;;;;;23.86;57.72;100269.31;4962437;28;118878;-78
2023/09/18 07:29:15;;;;;;;;;;;;;;;23.87;57.70;100276.44;4956249;28;123128;-77
2023/09/18 07:31:42;;;;;;;;;;;;;;;23.87;57.95;100281.84;4956579;28;123698;-77
2023/09/18 07:34:10;;;;;;;;;;;;;;;23.88;57.76;100283.53;4963422;28;120564;-77
2023/09/18 07:36:40;;;;;;;;;;;;;;;23.87;57.90;100292.66;4963598;28;117999;-77
2023/09/18 07:39:07;;;;;;;;;;;;;;;23.87;57.79;100303.47;4957828;28;123847;-78
2023/09/18 07:41:34;;;;;;;;;;;;;;;23.85;57.90;100289.28;4968850;28;124982;-78
2023/09/18 07:44:02;;;;;;;;;;;;;;;23.86;57.97;100296.38;4954189;28;119808;-79
2023/09/18 07:46:29;;;;;;;;;;;;;;;23.86;57.61;100301.78;4958003;28;118716;-78
2023/09/18 07:48:56;;;;;;;;;;;;;;;23.84;57.69;100293.00;4964714;28;123851;-78
2023/09/18 07:51:23;;;;;;;;;;;;;;;23.84;57.87;100298.41;4966420;28;124002;-78
2023/09/18 07:53:50;;;;;;;;;;;;;;;23.83;57.82;100299.44;4959103;28;120372;-78
2023/09/18 07:56:19;;;;;;;;;;;;;;;23.83;57.64;100294.03;4961874;28;119977;-79
2023/09/18 07:58:46;;;;;;;;;;;;;;;23.83;57.64;100302.13;4931444;28;125297;-78
2023/09/18 08:01:16;;;;;;;;;;;;;;;23.82;57.82;100305.84;4959441;28;123024;-78
2023/09/18 08:03:43;;;;;;;;;;;;;;;23.87;57.70;100297.22;4961310;28;119412;-78
2023/09/18 08:06:11;;;;;;;;;;;;;;;23.88;57.70;100294.38;4960661;28;118472;-79
2023/09/18 08:08:39;;;;;;;;;;;;;;;23.92;57.73;100300.25;4965725;28;124603;-78
2023/09/18 08:11:08;;;;;;;;;;;;;;;23.94;57.69;100297.38;4956001;28;124375;-78
2023/09/18 08:13:36;;;;;;;;;;;;;;;23.96;57.77;100301.63;4965583;28;119332;-78
2023/09/18 08:16:05;;;;;;;;;;;;;;;23.98;57.78;100293.31;4966276;28;119040;-78
2023/09/18 08:18:32;;;;;;;;;;;;;;;24.03;57.74;100301.78;4966661;28;124287;-78
2023/09/18 08:21:00;;;;;;;;;;;;;;;24.06;57.84;100306.84;4958817;28;126725;-77
2023/09/18 08:23:27;;;;;;;;;;;;;;;24.08;57.71;100304.81;4961774;28;121758;-78
2023/09/18 08:25:58;;;;;;;;;;;;;;;24.12;57.61;100306.16;4958365;28;118958;-78
2023/09/18 08:28:25;;;;;;;;;;;;;;;24.11;57.85;100309.91;4960263;28;124090;-77
2023/09/18 08:30:52;;;;;;;;;;;;;;;24.12;57.80;100311.59;4961008;28;124485;-77
2023/09/18 08:33:20;;;;;;;;;;;;;;;24.16;57.84;100312.94;4960245;28;119450;-77
2023/09/18 08:35:49;;;;;;;;;;;;;;;24.21;57.90;100315.97;4965284;28;118309;-77
2023/09/18 08:38:16;;;;;;;;;;;;;;;24.25;57.74;100317.31;4969312;28;124883;-77
2023/09/18 08:40:43;;;;;;;;;;;;;;;24.31;57.84;100314.94;4966754;28;123484;-77
2023/09/18 08:43:11;;;;;;;;;;;;;;;24.33;57.63;100329.16;4965673;28;122444;-77
2023/09/18 08:45:55;;;;;;;;;;;;;;;24.32;57.72;100332.84;4962621;28;119760;-77
2023/09/18 08:48:23;;;;;;;;;;;;;;;24.33;57.78;100329.16;4955151;28;123954;-77
2023/09/18 08:50:51;;;;;;;;;;;;;;;24.32;57.70;100331.03;4959040;28;124933;-77
2023/09/18 08:53:18;;;;;;;;;;;;;;;24.33;57.36;100334.56;4967370;28;119584;-78
2023/09/18 08:55:45;;;;;;;;;;;;;;;24.35;57.69;100337.94;4968918;28;118846;-77
2023/09/18 08:58:14;;;;;;;;;;;;;;;24.36;57.49;100339.66;4961560;28;123236;-77
2023/09/18 09:00:41;;;;;;;;;;;;;;;24.37;57.43;100352.16;4960855;28;123681;-76
2023/09/18 09:03:09;;;;;;;;;;;;;;;24.36;57.37;100355.88;4962735;28;119739;-77
2023/09/18 09:05:36;;;;;;;;;;;;;;;24.36;57.38;100355.88;4967405;28;118770;-76
2023/09/18 09:08:04;;;;;;;;;;;;;;;24.36;57.46;100347.78;4962596;28;123433;-76
2023/09/18 09:10:31;;;;;;;;;;;;;;;24.37;57.63;100352.16;4966124;28;124576;-76
2023/09/18 09:12:59;;;;;;;;;;;;;;;24.40;57.49;100341.00;4963539;28;119801;-76
2023/09/18 09:15:27;;;;;;;;;;;;;;;24.43;57.70;100344.19;4962220;28;119962;-76
2023/09/18 09:18:05;;;;;;;;;;;;;;;24.46;57.63;100354.66;4968192;28;124041;-76
2023/09/18 09:20:32;;;;;;;;;;;;;;;24.49;57.54;100339.97;4961444;28;123920;-76
2023/09/18 09:23:00;;;;;;;;;;;;;;;24.57;57.47;100334.53;4963388;28;120104;-76
2023/09/18 09:25:31;;;;;;;;;;;;;;;24.67;57.64;100337.88;4967222;28;118625;-75
2023/09/18 09:27:59;;;;;;;;;;;;;;;24.79;57.92;100329.41;4962328;28;124162;-76
2023/09/18 09:30:27;;;;;;;;;;;;;;;24.93;57.95;100328.69;4958257;28;123992;-76
2023/09/18 09:32:55;;;;;;;;;;;;;;;25.04;57.68;100322.88;4958283;28;120658;-76
2023/09/18 09:35:27;;;;;;;;;;;;;;;25.15;57.84;100323.50;4980914;28;119944;-76
2023/09/18 09:38:00;;;;;;;;;;;;;;;25.27;57.35;100332.13;4967774;28;124135;-75
2023/09/18 09:40:30;;;;;;;;;;;;;;;25.36;57.50;100329.19;4962695;28;124848;-76
2023/09/18 09:43:01;;;;;;;;;;;;;;;25.45;57.44;100329.97;4971696;28;119160;-75
2023/09/18 09:45:35;;;;;;;;;;;;;;;25.56;57.66;100331.41;4966287;28;118539;-75
2023/09/18 09:48:06;;;;;;;;;;;;;;;25.66;57.49;100334.75;4951161;28;122677;-75
2023/09/18 09:50:44;;;;;;;;;;;;;;;25.76;57.42;100338.06;4966544;28;124003;-76
2023/09/18 09:53:12;;;;;;;;;;;;;;;25.86;57.60;100342.41;4963181;28;118336;-75
2023/09/18 09:55:40;;;;;;;;;;;;;;;25.95;57.50;100347.63;4965386;28;118754;-76
2023/09/18 09:58:08;;;;;;;;;;;;;;;26.01;57.07;100335.19;4965233;28;127521;-75
2023/09/18 10:00:42;;;;;;;;;;;;;;;26.06;57.07;100343.63;4961469;28;123954;-75
2023/09/18 10:03:11;;;;;;;;;;;;;;;26.11;57.27;100346.66;4966132;28;119380;-76
2023/09/18 10:05:39;;;;;;;;;;;;;;;26.19;56.90;100354.72;4965901;28;119304;-77
2023/09/18 10:08:07;;;;;;;;;;;;;;;26.25;57.05;100352.28;4962661;28;125960;-76
2023/09/18 10:10:36;;;;;;;;;;;;;;;26.30;57.13;100358.03;4957972;28;123777;-76
2023/09/18 10:13:07;;;;;;;;;;;;;;;26.34;57.11;100367.50;4966749;28;119628;-76
2023/09/18 10:15:38;;;;;;;;;;;;;;;26.39;56.99;100359.59;4964041;28;117045;-75
2023/09/18 10:18:08;;;;;;;;;;;;;;;26.45;57.11;100368.88;4956825;28;124768;-76
2023/09/18 10:20:42;;;;;;;;;;;;;;;26.48;56.91;100382.94;4961713;28;123825;-76
2023/09/18 10:23:17;;;;;;;;;;;;;;;26.48;56.71;100380.22;4960435;28;119842;-76
2023/09/18 10:25:45;;;;;;;;;;;;;;;26.45;56.59;100388.75;4960775;28;120335;-75
2023/09/18 10:28:15;;;;;;;;;;;;;;;26.45;56.52;100396.91;4959947;28;124212;-76
2023/09/18 10:30:42;;;;;;;;;;;;;;;26.43;56.23;100393.53;4960429;28;124439;-76
2023/09/18 10:33:09;;;;;;;;;;;;;;;26.40;56.43;100393.91;4960066;28;120066;-76
2023/09/18 10:35:37;;;;;;;;;;;;;;;26.39;56.24;100387.63;4959436;28;118530;-76
2023/09/18 10:38:05;;;;;;;;;;;;;;;26.40;56.34;100392.03;4960043;28;124563;-76
2023/09/18 10:40:32;;;;;;;;;;;;;;;26.43;56.34;100393.53;4960725;28;124164;-75
2023/09/18 10:43:02;;;;;;;;;;;;;;;26.45;56.50;100385.19;4967408;28;119179;-76
2023/09/18 10:45:29;;;;;;;;;;;;;;;26.46;56.14;100382.28;4964007;28;118721;-75
2023/09/18 10:47:57;;;;;;;;;;;;;;;26.46;56.13;100376.84;4964405;28;124912;-75
2023/09/18 10:50:25;;;;;;;;;;;;;;;26.51;56.22;100385.31;4966330;28;123562;-75
2023/09/18 10:52:53;;;;;;;;;;;;;;;26.57;56.32;100378.28;4966898;28;119847;-75
2023/09/18 10:55:21;;;;;;;;;;;;;;;26.66;56.63;100388.06;4966970;28;118814;-75
2023/09/18 10:57:55;;;;;;;;;;;;;;;26.76;56.27;100371.50;4966177;28;124231;-75
2023/09/18 11:00:27;;;;;;;;;;;;;;;26.87;56.38;100368.31;4966420;28;123867;-75
2023/09/18 11:03:10;;;;;;;;;;;;;;;26.98;56.43;100370.56;4965473;28;119589;-75
2023/09/18 11:05:37;;;;;;;;;;;;;;;27.08;56.43;100374.88;4966008;28;118313;-75
2023/09/18 11:08:23;;;;;;;;;;;;;;;27.14;56.00;100368.66;4963068;28;124579;-75
2023/09/18 11:10:56;;;;;;;;;;;;;;;27.19;56.10;100360.78;4965264;28;124516;-75
2023/09/18 11:13:29;;;;;;;;;;;;;;;27.23;55.95;100356.66;4965310;28;120444;-75
2023/09/18 11:16:15;;;;;;;;;;;;;;;27.30;56.28;100352.19;4966620;28;118721;-76
2023/09/18 11:18:45;;;;;;;;;;;;;;;27.42;56.15;100354.41;4962778;28;125220;-75
2023/09/18 11:21:15;;;;;;;;;;;;;;;27.54;56.30;100352.88;4958052;28;123997;-75
2023/09/18 11:23:42;;;;;;;;;;;;;;;27.67;56.13;100353.03;4960347;28;119525;-75
2023/09/18 11:26:10;;;;;;;;;;;;;;;27.77;55.81;100369.88;4962873;28;118569;-75
2023/09/18 11:28:38;;;;;;;;;;;;;;;27.86;55.56;100372.44;4955648;28;124237;-75
2023/09/18 11:31:05;;;;;;;;;;;;;;;27.87;55.54;100368.69;4962273;28;124974;-75
2023/09/18 11:33:34;;;;;;;;;;;;;;;27.84;55.37;100380.84;4969527;28;120310;-75
2023/09/18 11:36:06;;;;;;;;;;;;;;;27.81;55.48;100380.38;4955852;28;119550;-75
2023/09/18 11:38:52;;;;;;;;;;;;;;;27.76;55.16;100384.53;4955860;28;124104;-74
2023/09/18 11:41:28;;;;;;;;;;;;;;;27.69;55.23;100371.84;4965614;28;125406;-75
2023/09/18 11:44:23;;;;;;;;;;;;;;;27.60;55.03;100375.75;4961712;28;120265;-76
2023/09/18 11:46:52;;;;;;;;;;;;;;;27.49;55.16;100377.94;4931552;28;117744;-75
2023/09/18 11:49:21;;;;;;;;;;;;;;;27.41;55.01;100379.91;4946573;28;124496;-75
2023/09/18 11:51:50;;;;;;;;;;;;;;;27.33;55.18;100384.44;4963121;28;122940;-75
2023/09/18 11:54:17;;;;;;;;;;;;;;;27.25;55.09;100381.81;4963315;28;120366;-74
2023/09/18 11:56:44;;;;;;;;;;;;;;;27.20;55.21;100373.38;4968775;28;117806;-74
2023/09/18 11:59:12;;;;;;;;;;;;;;;27.13;55.18;100375.16;4969225;28;124520;-74
2023/09/18 12:01:40;;;;;;;;;;;;;;;27.02;55.05;100364.75;4969886;28;123356;-74
2023/09/18 12:04:13;;;;;;;;;;;;;;;26.93;55.09;100370.28;4966815;28;120853;-74
2023/09/18 12:06:41;;;;;;;;;;;;;;;26.88;55.17;100364.59;4966266;28;119467;-74
2023/09/18 12:09:08;;;;;;;;;;;;;;;26.91;55.17;100355.19;4962619;28;124206;-75
2023/09/18 12:11:36;;;;;;;;;;;;;;;26.96;55.62;100361.75;4965524;28;124720;-74
2023/09/18 12:14:04;;;;;;;;;;;;;;;27.04;55.30;100368.13;4960513;28;119357;-75
2023/09/18 12:16:38;;;;;;;;;;;;;;;27.11;55.43;100374.50;4961535;28;118850;-74
2023/09/18 12:19:08;;;;;;;;;;;;;;;27.21;55.46;100375.03;4964763;28;124272;-75
2023/09/18 12:21:42;;;;;;;;;;;;;;;27.30;55.44;100363.06;4967235;28;126299;-74
2023/09/18 12:24:20;;;;;;;;;;;;;;;27.38;55.47;100360.22;4965847;28;119683;-75
2023/09/18 12:26:47;;;;;;;;;;;;;;;27.46;55.30;100355.69;4964375;28;118025;-75
2023/09/18 12:29:15;;;;;;;;;;;;;;;27.50;55.05;100348.84;4964725;28;125130;-75
2023/09/18 12:31:45;;;;;;;;;;;;;;;27.50;55.07;100346.13;4960537;28;124658;-75
2023/09/18 12:34:15;;;;;;;;;;;;;;;27.53;55.04;100343.03;4967540;28;120525;-75
2023/09/18 12:36:43;;;;;;;;;;;;;;;27.59;55.35;100344.97;4963519;28;118315;-75